sensor_id;sensor_type;location;lat;lon;timestamp;pressure;altitude;pressure_sealevel;temperature;humidity
14067;BME280;7108;42.684;23.350;2023-03-18T00:02:04;95751.19;;;3.29;100.00
14067;BME280;7108;42.684;23.350;2023-03-18T00:04:30;95754.00;;;3.32;100.00
14067;BME280;7108;42.684;23.350;2023-03-18T00:06:56;95771.34;;;3.43;100.00
14067;BME280;7108;42.684;23.350;2023-03-18T00:09:25;95769.31;;;3.40;100.00
14067;BME280;7108;42.684;23.350;2023-03-18T00:11:53;95759.44;;;3.41;100.00
14067;BME280;7108;42.684;23.350;2023-03-18T00:14:21;95772.84;;;3.36;100.00
14067;BME280;7108;42.684;23.350;2023-03-18T00:16:47;95746.56;;;3.21;100.00
14067;BME280;7108;42.684;23.350;2023-03-18T00:19:13;95745.56;;;3.17;100.00
14067;BME280;7108;42.684;23.350;2023-03-18T00:21:39;95754.41;;;3.39;100.00
14067;BME280;7108;42.684;23.350;2023-03-18T00:24:05;95738.88;;;3.20;100.00
14067;BME280;7108;42.684;23.350;2023-03-18T00:26:30;95752.97;;;3.20;100.00
14067;BME280;7108;42.684;23.350;2023-03-18T00:28:57;95756.13;;;3.22;100.00
14067;BME280;7108;42.684;23.350;2023-03-18T00:31:24;95758.69;;;3.27;100.00
14067;BME280;7108;42.684;23.350;2023-03-18T00:33:50;95744.19;;;3.20;100.00
14067;BME280;7108;42.684;23.350;2023-03-18T00:36:16;95732.47;;;3.07;100.00
14067;BME280;7108;42.684;23.350;2023-03-18T00:38:44;95739.84;;;3.23;100.00
14067;BME280;7108;42.684;23.350;2023-03-18T00:41:11;95739.84;;;3.23;100.00
14067;BME280;7108;42.684;23.350;2023-03-18T00:43:46;95722.72;;;3.03;100.00
14067;BME280;7108;42.684;23.350;2023-03-18T00:46:26;95717.09;;;2.91;100.00
14067;BME280;7108;42.684;23.350;2023-03-18T00:48:56;95724.19;;;3.09;100.00
14067;BME280;7108;42.684;23.350;2023-03-18T00:51:29;95720.16;;;3.11;100.00
14067;BME280;7108;42.684;23.350;2023-03-18T00:53:58;95723.59;;;3.12;100.00
14067;BME280;7108;42.684;23.350;2023-03-18T00:56:26;95716.50;;;3.07;100.00
14067;BME280;7108;42.684;23.350;2023-03-18T00:58:52;95685.78;;;2.88;100.00
14067;BME280;7108;42.684;23.350;2023-03-18T01:01:19;95717.09;;;3.04;100.00
14067;BME280;7108;42.684;23.350;2023-03-18T01:03:46;95677.59;;;2.84;100.00
14067;BME280;7108;42.684;23.350;2023-03-18T01:06:15;95685.78;;;2.88;100.00
14067;BME280;7108;42.684;23.350;2023-03-18T01:08:41;95681.53;;;2.87;100.00
14067;BME280;7108;42.684;23.350;2023-03-18T01:11:08;95708.53;;;3.07;100.00
14067;BME280;7108;42.684;23.350;2023-03-18T01:13:35;95711.66;;;3.09;100.00
14067;BME280;7108;42.684;23.350;2023-03-18T01:16:02;95684.91;;;2.92;100.00
14067;BME280;7108;42.684;23.350;2023-03-18T01:18:29;95699.84;;;3.02;100.00
14067;BME280;7108;42.684;23.350;2023-03-18T01:20:55;95702.63;;;2.97;100.00
14067;BME280;7108;42.684;23.350;2023-03-18T01:23:22;95709.81;;;2.96;100.00
14067;BME280;7108;42.684;23.350;2023-03-18T01:25:48;95689.41;;;2.92;100.00
14067;BME280;7108;42.684;23.350;2023-03-18T01:28:17;95706.84;;;2.98;100.00
14067;BME280;7108;42.684;23.350;2023-03-18T01:30:43;95676.94;;;2.79;100.00
14067;BME280;7108;42.684;23.350;2023-03-18T01:33:11;95695.72;;;2.96;100.00
14067;BME280;7108;42.684;23.350;2023-03-18T01:35:37;95697.09;;;2.93;100.00
14067;BME280;7108;42.684;23.350;2023-03-18T01:38:04;95700.06;;;2.92;100.00
14067;BME280;7108;42.684;23.350;2023-03-18T01:40:32;95696.72;;;2.86;100.00
14067;BME280;7108;42.684;23.350;2023-03-18T01:43:17;95697.59;;;2.95;100.00
14067;BME280;7108;42.684;23.350;2023-03-18T01:45:47;95694.16;;;2.95;100.00
14067;BME280;7108;42.684;23.350;2023-03-18T01:48:16;95696.63;;;2.91;100.00
14067;BME280;7108;42.684;23.350;2023-03-18T01:50:44;95692.38;;;2.90;100.00
14067;BME280;7108;42.684;23.350;2023-03-18T01:53:14;95691.09;;;2.88;100.00
14067;BME280;7108;42.684;23.350;2023-03-18T01:55:42;95671.81;;;2.69;100.00
14067;BME280;7108;42.684;23.350;2023-03-18T01:58:31;95674.19;;;2.70;100.00
14067;BME280;7108;42.684;23.350;2023-03-18T02:01:04;95661.66;;;2.58;100.00
14067;BME280;7108;42.684;23.350;2023-03-18T02:03:32;95662.69;;;2.61;100.00
14067;BME280;7108;42.684;23.350;2023-03-18T02:05:58;95681.19;;;2.80;100.00
14067;BME280;7108;42.684;23.350;2023-03-18T02:08:24;95686.97;;;2.68;100.00
14067;BME280;7108;42.684;23.350;2023-03-18T02:10:50;95667.91;;;2.66;100.00
14067;BME280;7108;42.684;23.350;2023-03-18T02:13:16;95662.38;;;2.63;100.00
14067;BME280;7108;42.684;23.350;2023-03-18T02:15:56;95654.81;;;2.57;100.00
14067;BME280;7108;42.684;23.350;2023-03-18T02:18:44;95664.53;;;2.61;100.00
14067;BME280;7108;42.684;23.350;2023-03-18T02:27:16;95651.13;;;2.53;100.00
14067;BME280;7108;42.684;23.350;2023-03-18T02:29:42;95645.72;;;2.44;100.00
14067;BME280;7108;42.684;23.350;2023-03-18T02:32:09;95664.22;;;2.62;100.00
14067;BME280;7108;42.684;23.350;2023-03-18T02:34:36;95667.00;;;2.58;100.00
14067;BME280;7108;42.684;23.350;2023-03-18T02:37:02;95665.03;;;2.50;100.00
14067;BME280;7108;42.684;23.350;2023-03-18T02:39:28;95669.38;;;2.59;100.00
14067;BME280;7108;42.684;23.350;2023-03-18T02:41:56;95649.59;;;2.38;100.00
14067;BME280;7108;42.684;23.350;2023-03-18T02:44:21;95647.09;;;2.42;100.00
14067;BME280;7108;42.684;23.350;2023-03-18T02:47:00;95674.41;;;2.60;100.00
14067;BME280;7108;42.684;23.350;2023-03-18T02:49:27;95671.94;;;2.51;100.00
14067;BME280;7108;42.684;23.350;2023-03-18T02:51:53;95663.75;;;2.47;100.00
14067;BME280;7108;42.684;23.350;2023-03-18T02:54:24;95655.59;;;2.30;100.00
14067;BME280;7108;42.684;23.350;2023-03-18T02:56:51;95668.28;;;2.47;100.00
14067;BME280;7108;42.684;23.350;2023-03-18T02:59:18;95661.56;;;2.49;100.00
14067;BME280;7108;42.684;23.350;2023-03-18T03:01:45;95669.56;;;2.49;100.00
14067;BME280;7108;42.684;23.350;2023-03-18T03:04:12;95661.19;;;2.42;100.00
14067;BME280;7108;42.684;23.350;2023-03-18T03:06:39;95631.34;;;2.18;100.00
14067;BME280;7108;42.684;23.350;2023-03-18T03:09:06;95670.47;;;2.45;100.00
14067;BME280;7108;42.684;23.350;2023-03-18T03:11:32;95654.19;;;2.33;100.00
14067;BME280;7108;42.684;23.350;2023-03-18T03:14:01;95684.44;;;2.50;100.00
14067;BME280;7108;42.684;23.350;2023-03-18T03:16:27;95655.97;;;2.37;100.00
14067;BME280;7108;42.684;23.350;2023-03-18T03:18:52;95686.31;;;2.50;100.00
14067;BME280;7108;42.684;23.350;2023-03-18T03:21:18;95658.53;;;2.29;100.00
14067;BME280;7108;42.684;23.350;2023-03-18T03:23:44;95677.16;;;2.42;100.00
14067;BME280;7108;42.684;23.350;2023-03-18T03:26:10;95679.31;;;2.40;100.00
14067;BME280;7108;42.684;23.350;2023-03-18T03:28:36;95697.63;;;2.42;100.00
14067;BME280;7108;42.684;23.350;2023-03-18T03:31:02;95702.56;;;2.35;100.00
14067;BME280;7108;42.684;23.350;2023-03-18T03:33:28;95694.59;;;2.35;100.00
14067;BME280;7108;42.684;23.350;2023-03-18T03:35:54;95679.91;;;2.24;100.00
14067;BME280;7108;42.684;23.350;2023-03-18T03:38:20;95683.34;;;2.24;100.00
14067;BME280;7108;42.684;23.350;2023-03-18T03:40:47;95675.34;;;2.11;100.00
14067;BME280;7108;42.684;23.350;2023-03-18T03:43:13;95681.16;;;2.13;100.00
14067;BME280;7108;42.684;23.350;2023-03-18T03:45:43;95683.72;;;2.18;100.00
14067;BME280;7108;42.684;23.350;2023-03-18T03:48:09;95695.03;;;2.23;100.00
14067;BME280;7108;42.684;23.350;2023-03-18T03:50:35;95700.47;;;2.32;100.00
14067;BME280;7108;42.684;23.350;2023-03-18T03:53:02;95672.47;;;2.07;100.00
14067;BME280;7108;42.684;23.350;2023-03-18T03:55:29;95679.88;;;2.10;100.00
14067;BME280;7108;42.684;23.350;2023-03-18T03:57:58;95685.41;;;2.14;100.00
14067;BME280;7108;42.684;23.350;2023-03-18T04:00:23;95675.81;;;1.99;100.00
14067;BME280;7108;42.684;23.350;2023-03-18T04:02:51;95720.25;;;2.26;100.00
14067;BME280;7108;42.684;23.350;2023-03-18T04:05:19;95699.47;;;2.14;100.00
14067;BME280;7108;42.684;23.350;2023-03-18T04:07:46;95698.00;;;2.22;100.00
14067;BME280;7108;42.684;23.350;2023-03-18T04:10:13;95679.56;;;1.98;100.00
14067;BME280;7108;42.684;23.350;2023-03-18T04:12:49;95717.59;;;2.26;100.00
14067;BME280;7108;42.684;23.350;2023-03-18T04:15:16;95718.56;;;2.16;100.00
14067;BME280;7108;42.684;23.350;2023-03-18T04:17:45;95728.69;;;2.14;100.00
14067;BME280;7108;42.684;23.350;2023-03-18T04:20:15;95704.06;;;1.95;100.00
14067;BME280;7108;42.684;23.350;2023-03-18T04:22:42;95729.00;;;2.13;100.00
14067;BME280;7108;42.684;23.350;2023-03-18T04:25:09;95736.75;;;2.09;100.00
14067;BME280;7108;42.684;23.350;2023-03-18T04:27:39;95718.63;;;1.98;100.00
14067;BME280;7108;42.684;23.350;2023-03-18T04:30:09;95710.66;;;1.98;100.00
14067;BME280;7108;42.684;23.350;2023-03-18T04:32:38;95732.47;;;1.95;100.00
14067;BME280;7108;42.684;23.350;2023-03-18T04:35:04;95716.16;;;1.88;100.00
14067;BME280;7108;42.684;23.350;2023-03-18T04:37:29;95708.06;;;1.80;100.00
14067;BME280;7108;42.684;23.350;2023-03-18T04:39:55;95725.41;;;1.91;100.00
14067;BME280;7108;42.684;23.350;2023-03-18T04:42:22;95713.78;;;1.87;100.00
14067;BME280;7108;42.684;23.350;2023-03-18T04:44:48;95725.63;;;1.94;100.00
14067;BME280;7108;42.684;23.350;2023-03-18T04:47:13;95748.56;;;2.03;100.00
14067;BME280;7108;42.684;23.350;2023-03-18T04:49:42;95705.44;;;1.61;100.00
14067;BME280;7108;42.684;23.350;2023-03-18T04:52:08;95722.03;;;1.85;100.00
14067;BME280;7108;42.684;23.350;2023-03-18T04:54:33;95700.25;;;1.70;100.00
14067;BME280;7108;42.684;23.350;2023-03-18T04:57:04;95711.78;;;1.79;100.00
14067;BME280;7108;42.684;23.350;2023-03-18T04:59:32;95764.63;;;2.12;100.00
14067;BME280;7108;42.684;23.350;2023-03-18T05:01:58;95736.25;;;1.94;100.00
14067;BME280;7108;42.684;23.350;2023-03-18T05:04:27;95715.13;;;1.84;100.00
14067;BME280;7108;42.684;23.350;2023-03-18T05:06:56;95726.19;;;1.91;100.00
14067;BME280;7108;42.684;23.350;2023-03-18T05:09:22;95768.28;;;2.16;100.00
14067;BME280;7108;42.684;23.350;2023-03-18T05:11:48;95724.91;;;1.89;100.00
14067;BME280;7108;42.684;23.350;2023-03-18T05:14:23;95756.66;;;2.12;100.00
14067;BME280;7108;42.684;23.350;2023-03-18T05:16:52;95690.75;;;1.82;100.00
14067;BME280;7108;42.684;23.350;2023-03-18T05:19:29;95686.09;;;1.74;100.00
14067;BME280;7108;42.684;23.350;2023-03-18T05:22:00;95693.97;;;1.79;100.00
14067;BME280;7108;42.684;23.350;2023-03-18T05:24:26;95724.50;;;1.95;100.00
14067;BME280;7108;42.684;23.350;2023-03-18T05:26:54;95701.72;;;1.94;100.00
14067;BME280;7108;42.684;23.350;2023-03-18T05:29:21;95747.44;;;2.23;100.00
14067;BME280;7108;42.684;23.350;2023-03-18T05:31:49;95707.59;;;2.50;100.00
14067;BME280;7108;42.684;23.350;2023-03-18T05:34:15;95724.81;;;3.06;100.00
14067;BME280;7108;42.684;23.350;2023-03-18T05:36:40;95740.97;;;4.01;100.00
14067;BME280;7108;42.684;23.350;2023-03-18T05:39:07;95732.03;;;5.05;100.00
14067;BME280;7108;42.684;23.350;2023-03-18T05:41:32;95737.09;;;6.50;100.00
14067;BME280;7108;42.684;23.350;2023-03-18T05:43:58;95706.38;;;7.71;100.00
14067;BME280;7108;42.684;23.350;2023-03-18T05:46:23;95708.19;;;8.76;100.00
14067;BME280;7108;42.684;23.350;2023-03-18T05:48:49;95709.69;;;9.21;100.00
14067;BME280;7108;42.684;23.350;2023-03-18T05:51:14;95734.66;;;9.21;100.00
14067;BME280;7108;42.684;23.350;2023-03-18T05:53:40;95711.00;;;8.79;100.00
14067;BME280;7108;42.684;23.350;2023-03-18T05:56:06;95739.56;;;8.40;100.00
14067;BME280;7108;42.684;23.350;2023-03-18T05:58:32;95724.66;;;7.69;100.00
14067;BME280;7108;42.684;23.350;2023-03-18T06:00:58;95726.44;;;7.16;100.00
14067;BME280;7108;42.684;23.350;2023-03-18T06:03:25;95731.56;;;6.63;100.00
14067;BME280;7108;42.684;23.350;2023-03-18T06:05:51;95760.25;;;6.54;100.00
14067;BME280;7108;42.684;23.350;2023-03-18T06:08:18;95748.00;;;6.20;100.00
14067;BME280;7108;42.684;23.350;2023-03-18T06:10:43;95736.88;;;5.84;100.00
14067;BME280;7108;42.684;23.350;2023-03-18T06:13:10;95755.41;;;5.64;100.00
14067;BME280;7108;42.684;23.350;2023-03-18T06:15:36;95734.16;;;5.50;100.00
14067;BME280;7108;42.684;23.350;2023-03-18T06:18:02;95738.72;;;5.41;100.00
14067;BME280;7108;42.684;23.350;2023-03-18T06:20:29;95759.75;;;5.34;100.00
14067;BME280;7108;42.684;23.350;2023-03-18T06:22:55;95751.09;;;5.29;100.00
14067;BME280;7108;42.684;23.350;2023-03-18T06:25:21;95748.47;;;5.46;100.00
14067;BME280;7108;42.684;23.350;2023-03-18T06:27:48;95744.72;;;5.72;100.00
14067;BME280;7108;42.684;23.350;2023-03-18T06:30:15;95749.91;;;6.11;100.00
14067;BME280;7108;42.684;23.350;2023-03-18T06:32:44;95717.38;;;6.09;100.00
14067;BME280;7108;42.684;23.350;2023-03-18T06:35:10;95717.47;;;6.38;100.00
14067;BME280;7108;42.684;23.350;2023-03-18T06:37:37;95731.88;;;6.62;100.00
14067;BME280;7108;42.684;23.350;2023-03-18T06:40:04;95734.22;;;6.63;100.00
14067;BME280;7108;42.684;23.350;2023-03-18T06:42:30;95697.22;;;6.65;100.00
14067;BME280;7108;42.684;23.350;2023-03-18T06:45:02;95640.44;;;6.43;100.00
14067;BME280;7108;42.684;23.350;2023-03-18T06:47:28;95725.44;;;6.92;100.00
14067;BME280;7108;42.684;23.350;2023-03-18T06:49:54;95698.94;;;6.61;100.00
14067;BME280;7108;42.684;23.350;2023-03-18T06:52:23;95743.25;;;6.96;100.00
14067;BME280;7108;42.684;23.350;2023-03-18T06:54:48;95728.69;;;7.06;100.00
14067;BME280;7108;42.684;23.350;2023-03-18T06:57:15;95699.44;;;6.92;100.00
14067;BME280;7108;42.684;23.350;2023-03-18T06:59:41;95674.53;;;6.71;100.00
14067;BME280;7108;42.684;23.350;2023-03-18T07:02:09;95736.78;;;6.97;100.00
14067;BME280;7108;42.684;23.350;2023-03-18T07:04:35;95713.97;;;6.91;100.00
14067;BME280;7108;42.684;23.350;2023-03-18T07:07:01;95654.44;;;6.49;100.00
14067;BME280;7108;42.684;23.350;2023-03-18T07:09:29;95675.69;;;6.53;100.00
14067;BME280;7108;42.684;23.350;2023-03-18T07:11:55;95612.00;;;5.93;100.00
14067;BME280;7108;42.684;23.350;2023-03-18T07:14:22;95653.81;;;6.43;100.00
14067;BME280;7108;42.684;23.350;2023-03-18T07:16:51;95727.91;;;6.76;100.00
14067;BME280;7108;42.684;23.350;2023-03-18T07:19:20;95670.53;;;6.40;100.00
14067;BME280;7108;42.684;23.350;2023-03-18T07:21:52;95713.38;;;6.77;100.00
14067;BME280;7108;42.684;23.350;2023-03-18T07:24:18;95697.97;;;6.74;100.00
14067;BME280;7108;42.684;23.350;2023-03-18T07:26:46;95679.38;;;6.78;100.00
14067;BME280;7108;42.684;23.350;2023-03-18T07:29:11;95723.19;;;6.65;100.00
14067;BME280;7108;42.684;23.350;2023-03-18T07:31:37;95737.41;;;6.94;100.00
14067;BME280;7108;42.684;23.350;2023-03-18T07:34:03;95711.16;;;6.79;100.00
14067;BME280;7108;42.684;23.350;2023-03-18T07:36:42;95713.34;;;6.86;100.00
14067;BME280;7108;42.684;23.350;2023-03-18T07:39:14;95723.28;;;7.14;100.00
14067;BME280;7108;42.684;23.350;2023-03-18T07:41:42;95717.66;;;7.07;100.00
14067;BME280;7108;42.684;23.350;2023-03-18T07:44:11;95703.06;;;7.25;100.00
14067;BME280;7108;42.684;23.350;2023-03-18T07:46:37;95711.00;;;7.42;100.00
14067;BME280;7108;42.684;23.350;2023-03-18T07:49:02;95698.09;;;7.56;100.00
14067;BME280;7108;42.684;23.350;2023-03-18T07:51:28;95730.56;;;7.83;100.00
14067;BME280;7108;42.684;23.350;2023-03-18T07:53:53;95705.00;;;7.85;100.00
14067;BME280;7108;42.684;23.350;2023-03-18T07:56:22;95684.31;;;7.86;100.00
14067;BME280;7108;42.684;23.350;2023-03-18T07:58:48;95723.69;;;8.14;100.00
14067;BME280;7108;42.684;23.350;2023-03-18T08:01:13;95727.41;;;8.22;100.00
14067;BME280;7108;42.684;23.350;2023-03-18T08:03:42;95720.81;;;8.19;100.00
14067;BME280;7108;42.684;23.350;2023-03-18T08:06:12;95701.47;;;8.26;100.00
14067;BME280;7108;42.684;23.350;2023-03-18T08:08:42;95681.91;;;8.25;100.00
14067;BME280;7108;42.684;23.350;2023-03-18T08:11:08;95711.50;;;8.49;100.00
14067;BME280;7108;42.684;23.350;2023-03-18T08:13:35;95720.44;;;8.53;100.00
14067;BME280;7108;42.684;23.350;2023-03-18T08:16:09;95676.88;;;8.24;100.00
14067;BME280;7108;42.684;23.350;2023-03-18T08:18:34;95697.84;;;8.54;100.00
14067;BME280;7108;42.684;23.350;2023-03-18T08:21:00;95706.94;;;8.61;100.00
14067;BME280;7108;42.684;23.350;2023-03-18T08:23:26;95728.81;;;8.96;100.00
14067;BME280;7108;42.684;23.350;2023-03-18T08:25:52;95717.50;;;8.78;100.00
14067;BME280;7108;42.684;23.350;2023-03-18T08:28:18;95710.78;;;8.84;100.00
14067;BME280;7108;42.684;23.350;2023-03-18T08:30:44;95699.94;;;8.93;100.00
14067;BME280;7108;42.684;23.350;2023-03-18T08:33:11;95698.22;;;8.20;100.00
14067;BME280;7108;42.684;23.350;2023-03-18T08:35:39;95714.25;;;8.29;100.00
14067;BME280;7108;42.684;23.350;2023-03-18T08:38:09;95685.31;;;8.46;100.00
14067;BME280;7108;42.684;23.350;2023-03-18T08:40:38;95707.31;;;8.84;100.00
14067;BME280;7108;42.684;23.350;2023-03-18T08:43:10;95688.97;;;8.98;100.00
14067;BME280;7108;42.684;23.350;2023-03-18T08:45:45;95727.28;;;9.18;100.00
14067;BME280;7108;42.684;23.350;2023-03-18T08:48:29;95708.44;;;9.18;100.00
14067;BME280;7108;42.684;23.350;2023-03-18T08:51:02;95615.06;;;8.68;100.00
14067;BME280;7108;42.684;23.350;2023-03-18T08:53:28;95658.94;;;9.19;100.00
14067;BME280;7108;42.684;23.350;2023-03-18T08:56:04;95588.94;;;8.21;100.00
14067;BME280;7108;42.684;23.350;2023-03-18T08:58:34;95667.59;;;9.01;100.00
14067;BME280;7108;42.684;23.350;2023-03-18T09:01:01;95712.25;;;9.29;100.00
14067;BME280;7108;42.684;23.350;2023-03-18T09:03:27;95627.94;;;8.86;100.00
14067;BME280;7108;42.684;23.350;2023-03-18T09:05:57;95683.09;;;9.31;100.00
14067;BME280;7108;42.684;23.350;2023-03-18T09:08:31;95714.03;;;9.61;100.00
14067;BME280;7108;42.684;23.350;2023-03-18T09:10:58;95711.56;;;9.56;100.00
14067;BME280;7108;42.684;23.350;2023-03-18T09:13:25;95702.25;;;9.54;100.00
14067;BME280;7108;42.684;23.350;2023-03-18T09:15:51;95697.53;;;9.63;100.00
14067;BME280;7108;42.684;23.350;2023-03-18T09:18:17;95702.09;;;9.74;100.00
14067;BME280;7108;42.684;23.350;2023-03-18T09:21:51;95720.09;;;9.85;100.00
14067;BME280;7108;42.684;23.350;2023-03-18T09:27:54;95717.56;;;9.77;92.55
14067;BME280;7108;42.684;23.350;2023-03-18T09:31:07;95690.41;;;9.31;89.36
14067;BME280;7108;42.684;23.350;2023-03-18T10:01:08;95655.56;;;9.22;95.49
14067;BME280;7108;42.684;23.350;2023-03-18T10:11:05;95626.72;;;8.84;94.55
14067;BME280;7108;42.684;23.350;2023-03-18T10:19:56;95708.81;;;9.80;94.50
14067;BME280;7108;42.684;23.350;2023-03-18T10:31:01;95693.25;;;10.40;98.63
14067;BME280;7108;42.684;23.350;2023-03-18T10:34:13;95689.44;;;10.56;92.90
14067;BME280;7108;42.684;23.350;2023-03-18T10:36:54;95689.38;;;10.68;87.60
14067;BME280;7108;42.684;23.350;2023-03-18T10:39:25;95681.69;;;10.55;83.33
14067;BME280;7108;42.684;23.350;2023-03-18T10:41:53;95692.25;;;10.75;87.29
14067;BME280;7108;42.684;23.350;2023-03-18T10:44:28;95670.16;;;10.70;75.71
14067;BME280;7108;42.684;23.350;2023-03-18T10:46:58;95682.84;;;10.85;77.54
14067;BME280;7108;42.684;23.350;2023-03-18T10:49:27;95680.84;;;10.97;72.15
14067;BME280;7108;42.684;23.350;2023-03-18T10:54:42;95683.47;;;10.63;72.05
14067;BME280;7108;42.684;23.350;2023-03-18T10:57:15;95671.91;;;10.78;70.67
14067;BME280;7108;42.684;23.350;2023-03-18T10:59:42;95682.31;;;10.64;62.04
14067;BME280;7108;42.684;23.350;2023-03-18T11:04:49;95607.09;;;10.13;56.57
14067;BME280;7108;42.684;23.350;2023-03-18T11:07:24;95691.16;;;10.49;61.52
14067;BME280;7108;42.684;23.350;2023-03-18T11:09:51;95691.72;;;10.00;74.47
14067;BME280;7108;42.684;23.350;2023-03-18T11:12:23;95664.59;;;9.54;77.83
14067;BME280;7108;42.684;23.350;2023-03-18T11:14:50;95659.25;;;9.30;77.39
14067;BME280;7108;42.684;23.350;2023-03-18T11:17:32;95679.19;;;9.29;77.07
14067;BME280;7108;42.684;23.350;2023-03-18T11:20:22;95682.09;;;9.36;78.91
14067;BME280;7108;42.684;23.350;2023-03-18T11:22:52;95676.38;;;9.49;76.88
14067;BME280;7108;42.684;23.350;2023-03-18T11:25:24;95679.69;;;9.70;73.98
14067;BME280;7108;42.684;23.350;2023-03-18T11:28:05;95671.41;;;9.90;68.27
14067;BME280;7108;42.684;23.350;2023-03-18T11:30:51;95672.59;;;10.17;71.06
14067;BME280;7108;42.684;23.350;2023-03-18T11:33:23;95665.75;;;10.35;68.48
14067;BME280;7108;42.684;23.350;2023-03-18T11:35:55;95646.34;;;10.14;60.96
14067;BME280;7108;42.684;23.350;2023-03-18T11:41:14;95652.22;;;10.46;62.26
14067;BME280;7108;42.684;23.350;2023-03-18T11:44:05;95668.53;;;10.38;60.07
14067;BME280;7108;42.684;23.350;2023-03-18T11:49:21;95642.50;;;9.99;64.78
14067;BME280;7108;42.684;23.350;2023-03-18T11:55:21;95666.84;;;10.61;62.43
14067;BME280;7108;42.684;23.350;2023-03-18T12:06:36;95656.00;;;9.76;60.34
14067;BME280;7108;42.684;23.350;2023-03-18T12:09:10;95678.97;;;9.85;66.98
14067;BME280;7108;42.684;23.350;2023-03-18T12:14:42;95675.47;;;9.96;69.14
14067;BME280;7108;42.684;23.350;2023-03-18T12:17:39;95675.56;;;10.27;65.03
14067;BME280;7108;42.684;23.350;2023-03-18T12:23:02;95671.56;;;10.21;59.83
14067;BME280;7108;42.684;23.350;2023-03-18T12:31:20;95664.50;;;10.17;59.96
14067;BME280;7108;42.684;23.350;2023-03-18T12:42:15;95630.16;;;10.56;61.35
14067;BME280;7108;42.684;23.350;2023-03-18T12:45:07;95639.78;;;10.27;59.14
14067;BME280;7108;42.684;23.350;2023-03-18T12:50:21;95661.38;;;10.42;59.27
14067;BME280;7108;42.684;23.350;2023-03-18T12:53:03;95667.66;;;10.19;57.93
14067;BME280;7108;42.684;23.350;2023-03-18T12:55:55;95648.56;;;9.96;60.79
14067;BME280;7108;42.684;23.350;2023-03-18T12:58:25;95661.34;;;9.87;58.33
14067;BME280;7108;42.684;23.350;2023-03-18T13:03:42;95651.25;;;10.24;58.93
14067;BME280;7108;42.684;23.350;2023-03-18T13:06:15;95645.88;;;10.39;58.40
14067;BME280;7108;42.684;23.350;2023-03-18T13:11:38;95648.91;;;10.38;52.51
14067;BME280;7108;42.684;23.350;2023-03-18T13:14:30;95657.81;;;10.11;54.11
14067;BME280;7108;42.684;23.350;2023-03-18T13:16:58;95636.53;;;10.06;55.47
14067;BME280;7108;42.684;23.350;2023-03-18T13:19:25;95627.56;;;10.02;54.20
14067;BME280;7108;42.684;23.350;2023-03-18T13:23:14;95655.56;;;10.13;52.37
14067;BME280;7108;42.684;23.350;2023-03-18T13:25:34;95634.53;;;9.91;54.94
14067;BME280;7108;42.684;23.350;2023-03-18T13:28:08;95657.44;;;9.97;52.70
14067;BME280;7108;42.684;23.350;2023-03-18T13:34:04;95650.06;;;9.82;54.78
14067;BME280;7108;42.684;23.350;2023-03-18T13:39:48;95627.47;;;9.86;54.14
14067;BME280;7108;42.684;23.350;2023-03-18T13:42:18;95642.38;;;9.96;54.06
14067;BME280;7108;42.684;23.350;2023-03-18T13:45:15;95634.09;;;9.89;55.53
14067;BME280;7108;42.684;23.350;2023-03-18T13:48:15;95610.13;;;9.84;52.26
14067;BME280;7108;42.684;23.350;2023-03-18T13:50:42;95628.13;;;9.95;52.55
14067;BME280;7108;42.684;23.350;2023-03-18T13:58:53;95633.47;;;10.07;48.81
14067;BME280;7108;42.684;23.350;2023-03-18T14:01:56;95634.94;;;10.05;50.75
14067;BME280;7108;42.684;23.350;2023-03-18T14:04:31;95640.28;;;9.89;49.50
14067;BME280;7108;42.684;23.350;2023-03-18T14:07:13;95636.84;;;9.77;50.90
14067;BME280;7108;42.684;23.350;2023-03-18T14:17:55;95613.75;;;9.49;53.38
14067;BME280;7108;42.684;23.350;2023-03-18T14:20:39;95628.81;;;9.65;51.23
14067;BME280;7108;42.684;23.350;2023-03-18T14:23:30;95637.00;;;9.57;49.99
14067;BME280;7108;42.684;23.350;2023-03-18T14:26:04;95635.53;;;9.59;49.64
14067;BME280;7108;42.684;23.350;2023-03-18T14:29:01;95645.63;;;9.62;49.18
14067;BME280;7108;42.684;23.350;2023-03-18T14:41:52;95637.97;;;9.76;50.80
14067;BME280;7108;42.684;23.350;2023-03-18T14:44:32;95630.81;;;9.68;50.55
14067;BME280;7108;42.684;23.350;2023-03-18T14:47:02;95632.81;;;9.71;49.67
14067;BME280;7108;42.684;23.350;2023-03-18T14:49:32;95639.09;;;9.75;48.96
14067;BME280;7108;42.684;23.350;2023-03-18T14:52:01;95614.56;;;9.65;50.78
14067;BME280;7108;42.684;23.350;2023-03-18T14:54:35;95551.34;;;9.31;49.70
14067;BME280;7108;42.684;23.350;2023-03-18T14:57:03;95617.44;;;9.72;49.54
14067;BME280;7108;42.684;23.350;2023-03-18T14:59:29;95647.38;;;9.82;49.82
14067;BME280;7108;42.684;23.350;2023-03-18T15:01:55;95627.03;;;9.57;49.46
14067;BME280;7108;42.684;23.350;2023-03-18T15:04:22;95586.53;;;9.38;51.22
14067;BME280;7108;42.684;23.350;2023-03-18T15:06:53;95582.44;;;9.17;50.96
14067;BME280;7108;42.684;23.350;2023-03-18T15:09:24;95622.34;;;9.54;49.38
14067;BME280;7108;42.684;23.350;2023-03-18T15:11:51;95630.88;;;9.56;51.11
14067;BME280;7108;42.684;23.350;2023-03-18T15:14:29;95649.75;;;9.72;51.48
14067;BME280;7108;42.684;23.350;2023-03-18T15:16:58;95605.38;;;9.26;50.39
14067;BME280;7108;42.684;23.350;2023-03-18T15:19:27;95643.91;;;9.70;54.29
14067;BME280;7108;42.684;23.350;2023-03-18T15:21:57;95636.25;;;9.44;53.95
14067;BME280;7108;42.684;23.350;2023-03-18T15:24:28;95667.06;;;9.59;55.30
14067;BME280;7108;42.684;23.350;2023-03-18T15:27:05;95622.59;;;9.37;52.68
14067;BME280;7108;42.684;23.350;2023-03-18T15:29:35;95669.75;;;9.59;52.94
14067;BME280;7108;42.684;23.350;2023-03-18T15:32:24;95673.91;;;9.56;53.67
14067;BME280;7108;42.684;23.350;2023-03-18T15:35:04;95657.13;;;9.35;54.13
14067;BME280;7108;42.684;23.350;2023-03-18T15:37:39;95675.28;;;9.38;55.26
14067;BME280;7108;42.684;23.350;2023-03-18T15:43:41;95695.00;;;9.30;55.69
14067;BME280;7108;42.684;23.350;2023-03-18T15:46:29;95689.28;;;9.20;55.70